Time;durP1;ratioP1;P1;durP2;ratioP2;P2;SDS_P1;SDS_P2;PMS_P1;PMS_P2;Temp;Humidity;BMP_temperature;BMP_pressure;BME280_temperature;BME280_humidity;BME280_pressure;Samples;Min_cycle;Max_cycle;Signal;HPM_P1;HPM_P2
2023/09/02 00:01:33;;;;;;;4.23;2.33;;;16.70;99.90;;;;;;5035302;28;20142;-69
2023/09/02 00:04:01;;;;;;;3.93;3.33;;;16.60;99.90;;;;;;5036605;28;20092;-69
2023/09/02 00:06:27;;;;;;;8.75;2.60;;;16.70;99.90;;;;;;5035348;28;20033;-69
2023/09/02 00:08:53;;;;;;;5.17;2.17;;;16.60;99.90;;;;;;5036953;28;20026;-69
2023/09/02 00:11:18;;;;;;;4.07;3.70;;;16.60;99.90;;;;;;5036033;28;20092;-69
2023/09/02 00:13:44;;;;;;;4.60;2.33;;;16.70;99.90;;;;;;5036308;28;20029;-70
2023/09/02 00:16:10;;;;;;;1.97;1.77;;;16.70;99.90;;;;;;5036508;28;20025;-70
2023/09/02 00:18:35;;;;;;;2.00;1.87;;;16.60;99.90;;;;;;5029818;28;20064;-69
2023/09/02 00:21:01;;;;;;;6.10;1.97;;;16.60;99.90;;;;;;5037175;28;20405;-69
2023/09/02 00:23:27;;;;;;;4.60;3.40;;;16.50;99.90;;;;;;5039934;28;20122;-69
2023/09/02 00:25:52;;;;;;;6.67;2.27;;;16.50;99.90;;;;;;5035247;28;20042;-69
2023/09/02 00:28:18;;;;;;;7.37;2.73;;;16.50;99.90;;;;;;5034842;28;20033;-70
2023/09/02 00:30:43;;;;;;;1.50;1.40;;;16.40;99.90;;;;;;5041896;28;20522;-69
2023/09/02 00:33:10;;;;;;;5.77;3.23;;;16.40;99.90;;;;;;5041734;28;21457;-69
2023/09/02 00:35:35;;;;;;;3.95;1.83;;;16.40;99.90;;;;;;5033586;28;20083;-69
2023/09/02 00:38:01;;;;;;;6.00;2.43;;;16.40;99.90;;;;;;5034496;28;20042;-70
2023/09/02 00:40:29;;;;;;;3.27;3.00;;;16.30;99.90;;;;;;5032458;28;20104;-69
2023/09/02 00:42:56;;;;;;;3.13;1.90;;;16.30;99.90;;;;;;5033673;28;20075;-69
2023/09/02 00:45:22;;;;;;;10.60;4.55;;;16.30;99.90;;;;;;5032970;28;20037;-76
2023/09/02 00:47:53;;;;;;;2.35;1.88;;;16.30;99.90;;;;;;5031700;28;20038;-69
2023/09/02 00:50:19;;;;;;;3.20;2.90;;;16.30;99.90;;;;;;5030643;28;20028;-69
2023/09/02 00:52:47;;;;;;;3.33;2.97;;;16.30;99.90;;;;;;5034313;28;20026;-69
2023/09/02 00:55:13;;;;;;;2.03;1.88;;;16.20;99.90;;;;;;5032590;28;20328;-69
2023/09/02 00:57:39;;;;;;;9.32;2.67;;;16.10;99.90;;;;;;5033618;28;20087;-70
2023/09/02 01:00:06;;;;;;;4.88;4.40;;;16.10;99.90;;;;;;5030879;28;20424;-69
2023/09/02 01:02:33;;;;;;;2.42;1.98;;;16.10;99.90;;;;;;5033343;28;20087;-69
2023/09/02 01:04:59;;;;;;;1.27;1.27;;;16.10;99.90;;;;;;5030907;28;20029;-69
2023/09/02 01:07:25;;;;;;;6.68;3.15;;;16.10;99.90;;;;;;5034299;28;20026;-69
2023/09/02 01:09:51;;;;;;;2.58;1.85;;;16.10;99.90;;;;;;5035959;28;20381;-70
2023/09/02 01:12:18;;;;;;;11.63;3.70;;;16.10;99.90;;;;;;5031661;28;20024;-70
2023/09/02 01:14:44;;;;;;;6.57;3.35;;;16.10;99.90;;;;;;5032650;28;20029;-69
2023/09/02 01:17:10;;;;;;;3.10;2.90;;;16.10;99.90;;;;;;5032997;28;20029;-69
2023/09/02 01:19:36;;;;;;;8.90;3.20;;;16.10;99.90;;;;;;5031642;28;20037;-75
2023/09/02 01:22:40;;;;;;;9.32;4.43;;;16.10;99.90;;;;;;5030670;28;20095;-69
2023/09/02 01:25:36;;;;;;;2.70;2.50;;;16.20;99.90;;;;;;5036288;28;20069;-69
2023/09/02 01:28:16;;;;;;;5.00;4.03;;;16.30;99.90;;;;;;5030359;28;20032;-72
2023/09/02 01:30:45;;;;;;;6.90;2.72;;;16.50;99.90;;;;;;5043753;28;20051;-69
2023/09/02 01:33:12;;;;;;;3.60;2.20;;;16.50;99.90;;;;;;5041406;28;20104;-69
2023/09/02 01:35:38;;;;;;;4.65;2.75;;;16.50;99.90;;;;;;5032853;28;20105;-69
2023/09/02 01:38:06;;;;;;;4.03;2.70;;;16.50;99.90;;;;;;5031822;28;20025;-69
2023/09/02 01:40:33;;;;;;;1.85;1.35;;;16.40;99.90;;;;;;5032573;28;20038;-69
2023/09/02 01:43:00;;;;;;;3.15;2.88;;;16.40;99.90;;;;;;5036527;28;20100;-69
2023/09/02 01:45:33;;;;;;;3.15;1.55;;;16.30;99.90;;;;;;5054148;28;20033;-69
2023/09/02 01:47:59;;;;;;;5.20;3.53;;;16.40;99.90;;;;;;5045722;28;20063;-69
2023/09/02 01:50:32;;;;;;;5.95;3.40;;;16.40;99.90;;;;;;5035149;28;20025;-69
2023/09/02 01:52:59;;;;;;;6.28;2.80;;;16.40;99.90;;;;;;5034402;28;20037;-70
2023/09/02 01:55:25;;;;;;;5.95;3.85;;;16.50;99.90;;;;;;5021290;28;20017;-69
2023/09/02 01:57:51;;;;;;;14.33;3.27;;;16.50;99.90;;;;;;5033719;28;20033;-69
2023/09/02 02:00:17;;;;;;;;;;;16.60;99.90;;;;;;5033211;28;20266;-69
2023/09/02 02:02:43;;;;;;;2.30;2.17;;;16.60;99.90;;;;;;5043391;28;20208;-69
2023/09/02 02:05:13;;;;;;;2.33;2.20;;;16.60;99.90;;;;;;5052194;28;20697;-69
2023/09/02 02:07:44;;;;;;;3.80;2.78;;;16.60;99.90;;;;;;5033982;28;20033;-69
2023/09/02 02:10:13;;;;;;;4.43;3.40;;;16.60;99.90;;;;;;5034667;28;20049;-69
2023/09/02 02:12:42;;;;;;;6.25;4.32;;;16.50;99.90;;;;;;5054953;28;20029;-69
2023/09/02 02:15:11;;;;;;;2.42;2.22;;;16.60;99.90;;;;;;5054283;28;20108;-69
2023/09/02 02:17:38;;;;;;;15.50;2.55;;;16.60;99.90;;;;;;5044650;28;20033;-69
2023/09/02 02:20:04;;;;;;;3.60;2.22;;;16.50;99.90;;;;;;5033128;28;20385;-69
2023/09/02 02:22:30;;;;;;;7.47;3.47;;;16.50;99.90;;;;;;5034227;28;20069;-69
2023/09/02 02:24:56;;;;;;;3.13;2.40;;;16.50;99.90;;;;;;5045658;28;20080;-69
2023/09/02 02:27:22;;;;;;;6.80;3.00;;;16.50;99.90;;;;;;5033342;28;20034;-69
2023/09/02 02:29:47;;;;;;;3.53;2.43;;;16.50;99.90;;;;;;5042533;28;20017;-70
2023/09/02 02:32:13;;;;;;;5.43;4.60;;;16.50;99.90;;;;;;5048889;28;20025;-69
2023/09/02 02:34:39;;;;;;;15.67;2.87;;;16.40;99.90;;;;;;5051596;28;20052;-69
2023/09/02 02:37:05;;;;;;;8.50;2.50;;;16.50;99.90;;;;;;5037688;28;20040;-69
2023/09/02 02:39:30;;;;;;;3.00;2.50;;;16.50;99.90;;;;;;5036506;28;20034;-69
2023/09/02 02:41:56;;;;;;;9.70;2.97;;;16.40;99.90;;;;;;5046015;28;20033;-70
2023/09/02 02:44:22;;;;;;;7.43;2.47;;;16.50;99.90;;;;;;5045667;28;20033;-69
2023/09/02 02:46:47;;;;;;;1.53;1.43;;;16.60;99.90;;;;;;5055860;28;20324;-69
2023/09/02 02:49:13;;;;;;;2.13;2.03;;;16.50;99.90;;;;;;5043397;28;20078;-69
2023/09/02 02:51:39;;;;;;;2.87;2.63;;;16.50;99.90;;;;;;5036000;28;20353;-69
2023/09/02 02:54:05;;;;;;;2.90;2.70;;;16.50;99.90;;;;;;5038636;28;20022;-69
2023/09/02 02:56:30;;;;;;;2.77;2.57;;;16.50;99.90;;;;;;5037812;28;20032;-69
2023/09/02 02:58:56;;;;;;;5.33;3.13;;;16.50;99.90;;;;;;5030952;28;20061;-69
2023/09/02 03:01:22;;;;;;;5.00;2.53;;;16.50;99.90;;;;;;5044428;28;20032;-69
2023/09/02 03:03:48;;;;;;;3.90;2.90;;;16.50;99.90;;;;;;5052553;28;20021;-69
2023/09/02 03:06:18;;;;;;;7.50;2.80;;;16.50;99.90;;;;;;5038405;28;20041;-69
2023/09/02 03:08:44;;;;;;;5.25;3.60;;;16.50;99.90;;;;;;5033510;28;20432;-69
2023/09/02 03:11:10;;;;;;;4.17;2.13;;;16.50;99.90;;;;;;5045464;28;20033;-69
2023/09/02 03:13:36;;;;;;;2.27;1.97;;;16.40;99.90;;;;;;5055686;28;20037;-69
2023/09/02 03:16:02;;;;;;;6.38;4.35;;;16.50;99.90;;;;;;5037951;28;20078;-69
2023/09/02 03:18:28;;;;;;;4.10;3.33;;;16.60;99.90;;;;;;5046324;28;20435;-69
2023/09/02 03:20:54;;;;;;;1.53;1.43;;;16.60;99.90;;;;;;5046583;28;20036;-69
2023/09/02 03:23:19;;;;;;;5.47;2.05;;;16.60;99.90;;;;;;5057922;28;20441;-69
2023/09/02 03:25:45;;;;;;;7.27;4.10;;;16.60;99.90;;;;;;5052051;28;20053;-69
2023/09/02 03:28:12;;;;;;;5.23;2.83;;;16.60;99.90;;;;;;5042583;28;20315;-69
2023/09/02 03:30:38;;;;;;;5.97;2.58;;;16.60;99.90;;;;;;5033438;28;20444;-69
2023/09/02 03:33:04;;;;;;;8.52;3.28;;;16.50;99.90;;;;;;5041157;28;20021;-69
2023/09/02 03:35:35;;;;;;;9.63;3.17;;;16.50;99.90;;;;;;5057486;28;20029;-69
2023/09/02 03:38:01;;;;;;;9.25;2.22;;;16.60;99.90;;;;;;5039993;28;20036;-69
2023/09/02 03:40:29;;;;;;;9.33;3.87;;;16.60;99.90;;;;;;5041222;28;20029;-73
2023/09/02 03:42:55;;;;;;;3.58;3.10;;;16.60;99.90;;;;;;5037993;28;20033;-69
2023/09/02 03:45:21;;;;;;;4.15;3.53;;;16.60;99.90;;;;;;5049726;28;20025;-69
2023/09/02 03:47:46;;;;;;;3.40;2.00;;;16.70;99.90;;;;;;5037284;28;20049;-69
2023/09/02 03:50:12;;;;;;;7.70;3.40;;;16.70;99.90;;;;;;5035639;28;20028;-69
2023/09/02 03:52:38;;;;;;;12.97;5.73;;;16.70;99.90;;;;;;5046979;28;20074;-69
2023/09/02 03:55:04;;;;;;;33.07;3.37;;;16.70;99.90;;;;;;5039677;28;20104;-69
2023/09/02 03:57:31;;;;;;;6.13;4.15;;;16.60;99.90;;;;;;5037290;28;20045;-69
2023/09/02 03:59:56;;;;;;;5.95;3.28;;;16.60;99.90;;;;;;5037044;28;20053;-69
2023/09/02 04:02:22;;;;;;;4.90;2.97;;;16.50;99.90;;;;;;5056918;28;20057;-69
2023/09/02 04:04:48;;;;;;;14.83;4.63;;;16.60;99.90;;;;;;5057080;28;20120;-69
2023/09/02 04:07:13;;;;;;;7.30;3.47;;;16.70;99.90;;;;;;5041075;28;20028;-69
2023/09/02 04:09:39;;;;;;;11.33;2.90;;;16.70;99.90;;;;;;5043537;28;20399;-69
2023/09/02 04:12:05;;;;;;;13.17;4.17;;;16.70;99.90;;;;;;5037358;28;20113;-69
2023/09/02 04:14:31;;;;;;;2.97;2.65;;;16.70;99.90;;;;;;5057070;28;20025;-69
2023/09/02 04:16:58;;;;;;;9.50;4.80;;;16.60;99.90;;;;;;5055052;28;20025;-69
2023/09/02 04:19:24;;;;;;;5.75;2.30;;;16.70;99.90;;;;;;5049952;28;20017;-69
2023/09/02 04:21:52;;;;;;;10.77;2.87;;;16.70;99.90;;;;;;5050346;28;20035;-69
2023/09/02 04:24:17;;;;;;;5.90;3.17;;;16.70;99.90;;;;;;5055671;28;20021;-69
2023/09/02 04:26:43;;;;;;;7.40;2.97;;;16.70;99.90;;;;;;5043422;28;20030;-69
2023/09/02 04:29:09;;;;;;;4.40;2.53;;;16.70;99.90;;;;;;5045225;28;20013;-69
2023/09/02 04:31:34;;;;;;;4.93;2.63;;;16.70;99.90;;;;;;5041871;28;20057;-69
2023/09/02 04:34:00;;;;;;;5.60;3.70;;;16.70;99.90;;;;;;5044679;28;20087;-69
2023/09/02 04:36:26;;;;;;;10.13;3.13;;;16.80;99.90;;;;;;5039613;28;20020;-69
2023/09/02 04:38:51;;;;;;;5.17;2.90;;;16.80;99.90;;;;;;5039274;28;20056;-69
2023/09/02 04:41:17;;;;;;;17.30;3.37;;;16.80;99.90;;;;;;5034917;28;20317;-70
2023/09/02 04:43:43;;;;;;;2.75;2.55;;;16.70;99.90;;;;;;5043079;28;20029;-69
2023/09/02 04:46:09;;;;;;;2.90;2.70;;;16.70;99.90;;;;;;5056272;28;20025;-69
2023/09/02 04:48:35;;;;;;;4.47;3.17;;;16.80;99.90;;;;;;5039061;28;20116;-69
2023/09/02 04:51:03;;;;;;;2.25;2.08;;;16.90;99.90;;;;;;5042414;28;20065;-69
2023/09/02 04:53:29;;;;;;;9.80;3.72;;;16.80;99.90;;;;;;5053276;28;20021;-69
2023/09/02 04:55:55;;;;;;;4.27;3.50;;;16.80;99.90;;;;;;5056070;28;20037;-69
2023/09/02 04:58:22;;;;;;;7.60;3.70;;;16.70;99.90;;;;;;5039337;28;20115;-69
2023/09/02 05:00:48;;;;;;;7.15;3.20;;;16.80;99.90;;;;;;5035802;28;20334;-69
2023/09/02 05:03:14;;;;;;;3.38;3.08;;;16.70;99.90;;;;;;5035555;28;20075;-69
2023/09/02 05:05:40;;;;;;;8.57;3.73;;;16.70;99.90;;;;;;5035725;28;20029;-69
2023/09/02 05:08:06;;;;;;;12.75;4.78;;;16.70;99.90;;;;;;5035003;28;20029;-69
2023/09/02 05:10:32;;;;;;;3.77;2.93;;;16.70;99.90;;;;;;5035310;28;20368;-69
2023/09/02 05:12:58;;;;;;;4.50;2.97;;;16.70;99.90;;;;;;5035558;28;20075;-69
2023/09/02 05:15:24;;;;;;;4.67;4.27;;;16.80;99.90;;;;;;5035187;28;20399;-69
2023/09/02 05:17:50;;;;;;;5.60;4.20;;;16.80;99.90;;;;;;5034125;28;20385;-69
2023/09/02 05:20:16;;;;;;;5.40;4.05;;;16.80;99.90;;;;;;5035627;28;20359;-69
2023/09/02 05:22:42;;;;;;;4.40;3.63;;;16.70;99.90;;;;;;5035287;28;20034;-69
2023/09/02 05:25:08;;;;;;;8.67;3.37;;;16.70;99.90;;;;;;5045377;28;20462;-69
2023/09/02 05:27:36;;;;;;;6.53;2.90;;;16.60;99.90;;;;;;5034008;28;20041;-69
2023/09/02 05:30:02;;;;;;;5.40;3.38;;;16.60;99.90;;;;;;5035926;28;20022;-69
2023/09/02 05:32:28;;;;;;;2.47;2.28;;;16.50;99.90;;;;;;5035531;28;20024;-70
2023/09/02 05:34:54;;;;;;;3.73;2.43;;;16.50;99.90;;;;;;5053671;28;20316;-70
2023/09/02 05:37:19;;;;;;;15.60;4.27;;;16.60;99.90;;;;;;5041980;28;20037;-70
2023/09/02 05:39:45;;;;;;;7.80;2.73;;;16.70;99.90;;;;;;5037963;28;20477;-69
2023/09/02 05:42:11;;;;;;;4.90;3.30;;;16.70;99.90;;;;;;5040753;28;20494;-70
2023/09/02 05:44:37;;;;;;;3.87;2.43;;;16.70;99.90;;;;;;5033493;28;20034;-69
2023/09/02 05:47:03;;;;;;;8.57;4.63;;;16.80;99.90;;;;;;5035197;28;20037;-69
2023/09/02 05:49:29;;;;;;;6.43;3.47;;;16.80;99.90;;;;;;5035371;28;20061;-70
2023/09/02 05:51:55;;;;;;;5.18;4.78;;;16.70;99.90;;;;;;5040053;28;20490;-69
2023/09/02 05:54:21;;;;;;;5.80;2.43;;;16.70;99.90;;;;;;5052029;28;20021;-69
2023/09/02 05:56:47;;;;;;;13.17;3.80;;;16.80;99.90;;;;;;5038002;28;20289;-70
2023/09/02 05:59:13;;;;;;;5.55;3.97;;;16.80;99.90;;;;;;5039885;28;20017;-69
2023/09/02 06:01:39;;;;;;;10.60;5.63;;;16.90;99.90;;;;;;5048291;28;20447;-69
2023/09/02 06:04:05;;;;;;;4.57;4.18;;;16.90;99.90;;;;;;5041876;28;20017;-69
2023/09/02 06:06:31;;;;;;;12.68;3.70;;;16.90;99.90;;;;;;5042606;28;20087;-69
2023/09/02 06:08:56;;;;;;;12.33;5.63;;;16.90;99.90;;;;;;5035160;28;20087;-70
2023/09/02 06:11:22;;;;;;;4.10;3.60;;;16.90;99.90;;;;;;5043469;28;20334;-70
2023/09/02 06:13:48;;;;;;;6.07;3.87;;;17.00;99.90;;;;;;5048216;28;20028;-69
2023/09/02 06:16:13;;;;;;;6.93;3.53;;;17.00;99.90;;;;;;5034459;28;20025;-69
2023/09/02 06:18:39;;;;;;;4.67;3.63;;;17.00;99.90;;;;;;5031876;28;20116;-69
2023/09/02 06:21:12;;;;;;;5.97;2.97;;;17.00;99.90;;;;;;5041506;28;20339;-70
2023/09/02 06:23:40;;;;;;;8.73;4.03;;;17.10;99.90;;;;;;5040701;28;20036;-69
2023/09/02 06:26:06;;;;;;;2.75;2.55;;;17.10;99.90;;;;;;5034641;28;20057;-70
2023/09/02 06:28:33;;;;;;;9.40;3.63;;;17.10;99.90;;;;;;5034110;28;20032;-69
2023/09/02 06:31:03;;;;;;;5.53;3.47;;;17.10;99.90;;;;;;5033871;28;20353;-69
2023/09/02 06:33:29;;;;;;;14.02;4.22;;;17.10;99.90;;;;;;5034480;28;20021;-69
2023/09/02 06:35:55;;;;;;;7.27;4.30;;;17.20;99.90;;;;;;5032534;28;20033;-70
2023/09/02 06:38:20;;;;;;;5.00;3.53;;;17.20;99.90;;;;;;5038202;28;20141;-69
2023/09/02 06:40:46;;;;;;;4.30;4.00;;;17.20;99.90;;;;;;5033951;28;20026;-69
2023/09/02 06:43:12;;;;;;;2.90;2.67;;;17.20;99.90;;;;;;5043223;28;20037;-69
2023/09/02 06:45:38;;;;;;;14.55;4.15;;;17.20;99.90;;;;;;5043927;28;20059;-68
2023/09/02 06:48:04;;;;;;;7.87;3.63;;;17.20;99.90;;;;;;5032965;28;20060;-69
2023/09/02 06:50:31;;;;;;;3.47;3.00;;;17.20;99.90;;;;;;5042144;28;20037;-69
2023/09/02 06:52:56;;;;;;;7.15;3.80;;;17.20;99.90;;;;;;5044625;28;20029;-69
2023/09/02 06:55:22;;;;;;;6.03;4.63;;;17.20;99.90;;;;;;5032535;28;20436;-74
2023/09/02 06:57:48;;;;;;;10.87;4.97;;;17.20;99.90;;;;;;5035055;28;20432;-69
2023/09/02 07:00:14;;;;;;;6.10;5.00;;;17.30;99.90;;;;;;5036950;28;20309;-69
2023/09/02 07:02:40;;;;;;;2.47;2.33;;;17.30;99.90;;;;;;5034476;28;20025;-69
2023/09/02 07:05:06;;;;;;;3.40;2.75;;;17.30;99.90;;;;;;5035950;28;20033;-69
2023/09/02 07:07:32;;;;;;;8.00;4.50;;;17.40;99.90;;;;;;5034503;28;20322;-76
2023/09/02 07:09:58;;;;;;;13.23;4.23;;;17.40;99.90;;;;;;5036267;28;20029;-69
2023/09/02 07:12:24;;;;;;;2.20;2.00;;;17.40;99.90;;;;;;5034110;28;20663;-69
2023/09/02 07:14:50;;;;;;;12.15;4.15;;;17.40;99.90;;;;;;5039776;28;20021;-69
2023/09/02 07:17:15;;;;;;;14.47;4.93;;;17.50;99.90;;;;;;5031921;28;20025;-75
2023/09/02 07:19:41;;;;;;;1.57;1.53;;;17.50;99.90;;;;;;5034664;28;20022;-69
2023/09/02 07:22:07;;;;;;;4.43;2.43;;;17.50;99.90;;;;;;5046086;28;20040;-69
2023/09/02 07:24:32;;;;;;;4.33;3.57;;;17.50;99.90;;;;;;5044615;28;20038;-69
2023/09/02 07:26:58;;;;;;;4.60;2.73;;;17.50;99.90;;;;;;5046349;28;20087;-68
2023/09/02 07:29:24;;;;;;;8.37;3.40;;;17.50;99.90;;;;;;5043795;28;20048;-69
2023/09/02 07:31:49;;;;;;;2.73;2.47;;;17.50;99.90;;;;;;5038626;28;20029;-69
2023/09/02 07:34:15;;;;;;;2.07;1.93;;;17.50;99.90;;;;;;5048473;28;20032;-74
2023/09/02 07:36:42;;;;;;;3.33;3.10;;;17.50;99.90;;;;;;5043266;28;20083;-69
2023/09/02 07:39:07;;;;;;;;;;;17.50;99.90;;;;;;5048100;28;20082;-69
2023/09/02 07:41:33;;;;;;;5.07;3.67;;;17.50;99.90;;;;;;5039952;28;19909;-69
2023/09/02 07:43:59;;;;;;;2.53;2.00;;;17.50;99.90;;;;;;5037600;28;20421;-69
2023/09/02 07:46:24;;;;;;;3.77;2.17;;;17.50;99.90;;;;;;5048309;28;20025;-69
2023/09/02 07:48:51;;;;;;;1.80;1.70;;;17.50;99.90;;;;;;5046922;28;20033;-69
2023/09/02 07:51:17;;;;;;;6.80;3.33;;;17.40;99.90;;;;;;5040607;28;20096;-68
2023/09/02 07:53:43;;;;;;;;;;;17.60;99.90;;;;;;5040737;28;20427;-69
2023/09/02 07:56:09;;;;;;;6.07;1.83;;;17.60;99.90;;;;;;5039196;28;19913;-69
2023/09/02 07:58:35;;;;;;;2.20;1.33;;;17.70;99.90;;;;;;5046380;28;20040;-69
2023/09/02 08:01:02;;;;;;;4.17;1.77;;;17.70;99.90;;;;;;5048197;28;20037;-69
2023/09/02 08:03:27;;;;;;;;;;;17.70;99.90;;;;;;5044624;28;20033;-68
2023/09/02 08:05:53;;;;;;;6.82;3.15;;;17.70;99.90;;;;;;5038707;28;19905;-69
2023/09/02 08:08:19;;;;;;;7.63;2.73;;;17.70;99.90;;;;;;5039538;28;20111;-68
2023/09/02 08:10:45;;;;;;;4.90;4.07;;;17.70;99.90;;;;;;5042884;28;20535;-69
2023/09/02 08:13:11;;;;;;;4.53;4.13;;;17.80;99.90;;;;;;5048334;28;20017;-68
2023/09/02 08:15:37;;;;;;;3.23;2.93;;;17.80;99.90;;;;;;5040913;28;20570;-69
2023/09/02 08:18:04;;;;;;;1.98;1.88;;;17.80;99.90;;;;;;5039710;28;20270;-69
2023/09/02 08:20:33;;;;;;;3.00;1.75;;;17.80;99.90;;;;;;5045831;28;20057;-68
2023/09/02 08:22:59;;;;;;;3.42;2.08;;;17.80;99.90;;;;;;5044725;28;20083;-68
2023/09/02 08:25:25;;;;;;;5.40;2.43;;;17.90;99.90;;;;;;5047723;28;20045;-69
2023/09/02 08:27:50;;;;;;;3.70;2.73;;;17.90;99.90;;;;;;5035866;28;20032;-68
2023/09/02 08:30:16;;;;;;;9.67;2.57;;;17.90;99.90;;;;;;5040152;28;20028;-68
2023/09/02 08:32:42;;;;;;;3.73;2.37;;;18.00;99.90;;;;;;5036938;28;20021;-68
2023/09/02 08:35:09;;;;;;;2.97;2.78;;;18.00;99.90;;;;;;5029916;28;20752;-68
2023/09/02 08:37:37;;;;;;;6.78;3.42;;;18.00;99.90;;;;;;5048560;28;20090;-68
2023/09/02 08:40:03;;;;;;;3.90;2.65;;;17.90;99.90;;;;;;5041005;28;20026;-68
2023/09/02 08:42:32;;;;;;;5.30;2.08;;;18.00;99.90;;;;;;5039348;28;20037;-69
2023/09/02 08:45:00;;;;;;;6.72;2.03;;;18.00;99.90;;;;;;5037439;28;20025;-68
2023/09/02 08:47:30;;;;;;;4.82;1.95;;;18.10;99.90;;;;;;5050433;28;20025;-68
2023/09/02 08:49:57;;;;;;;3.45;2.10;;;18.10;99.90;;;;;;5043629;28;20025;-68
2023/09/02 08:52:25;;;;;;;13.77;2.95;;;18.20;99.90;;;;;;5038320;28;20017;-69
2023/09/02 08:54:51;;;;;;;2.33;1.85;;;18.30;99.90;;;;;;5038675;28;20074;-68
2023/09/02 08:57:18;;;;;;;8.27;3.95;;;18.30;99.90;;;;;;5051986;28;20021;-70
2023/09/02 08:59:44;;;;;;;5.32;2.83;;;18.40;99.90;;;;;;5036279;28;20101;-69
2023/09/02 09:02:13;;;;;;;9.13;2.73;;;18.40;99.90;;;;;;5036600;28;20159;-68
2023/09/02 09:04:39;;;;;;;5.35;2.75;;;18.40;99.90;;;;;;5037826;28;20032;-68
2023/09/02 09:07:05;;;;;;;3.80;3.45;;;18.50;99.90;;;;;;5038442;28;20025;-69
2023/09/02 09:09:39;;;;;;;4.07;2.92;;;18.40;99.90;;;;;;5037988;28;20028;-69
2023/09/02 09:12:06;;;;;;;3.00;1.58;;;18.50;99.90;;;;;;5037525;28;20024;-69
2023/09/02 09:14:36;;;;;;;13.40;3.40;;;18.40;99.90;;;;;;5042398;28;20033;-69
2023/09/02 09:17:04;;;;;;;7.03;4.70;;;18.40;99.90;;;;;;5036217;28;20025;-69
2023/09/02 09:19:30;;;;;;;8.18;3.58;;;18.40;99.90;;;;;;5037008;28;20025;-69
2023/09/02 09:21:57;;;;;;;4.60;2.63;;;18.40;99.90;;;;;;5037259;28;20036;-69
2023/09/02 09:24:23;;;;;;;7.43;3.33;;;18.30;99.90;;;;;;5036830;28;20029;-69
2023/09/02 09:26:49;;;;;;;5.93;3.53;;;18.40;99.90;;;;;;5035266;28;20097;-69
2023/09/02 09:29:18;;;;;;;9.40;3.17;;;18.40;99.90;;;;;;5038080;28;20520;-75
2023/09/02 09:31:44;;;;;;;4.97;2.53;;;18.40;99.90;;;;;;5034276;28;20025;-68
2023/09/02 09:34:11;;;;;;;2.22;2.05;;;18.30;99.90;;;;;;5040702;28;20434;-69
2023/09/02 09:36:37;;;;;;;6.22;2.88;;;18.30;99.90;;;;;;5033862;28;20108;-68
2023/09/02 09:39:07;;;;;;;5.82;2.58;;;18.30;99.90;;;;;;5038479;28;20025;-69
2023/09/02 09:41:35;;;;;;;3.05;2.75;;;18.30;99.90;;;;;;5033435;28;20029;-69
2023/09/02 09:44:17;;;;;;;2.17;2.03;;;18.20;99.90;;;;;;5035115;28;20025;-68
2023/09/02 09:46:43;;;;;;;5.47;2.72;;;18.20;99.90;;;;;;5033953;28;20022;-68
2023/09/02 09:49:21;;;;;;;11.87;3.00;;;18.40;99.90;;;;;;5031761;28;20083;-69
2023/09/02 09:51:46;;;;;;;2.28;2.13;;;18.50;99.90;;;;;;5033306;28;20076;-75
2023/09/02 09:54:12;;;;;;;2.33;2.13;;;18.40;99.90;;;;;;5034816;28;20022;-69
2023/09/02 09:56:44;;;;;;;6.00;1.80;;;18.50;99.90;;;;;;5031411;28;20026;-69
2023/09/02 09:59:10;;;;;;;3.67;1.55;;;18.50;99.90;;;;;;5035098;28;20095;-74
2023/09/02 10:01:36;;;;;;;2.37;1.13;;;18.50;99.90;;;;;;5029735;28;20038;-69
2023/09/02 10:04:11;;;;;;;6.22;2.10;;;18.60;99.90;;;;;;5034086;28;20112;-69
2023/09/02 10:06:38;;;;;;;4.80;3.20;;;18.50;99.90;;;;;;5031919;28;20036;-69
2023/09/02 10:09:04;;;;;;;8.18;2.30;;;18.60;99.90;;;;;;5036779;28;20036;-69
2023/09/02 10:11:29;;;;;;;7.43;2.37;;;18.70;99.90;;;;;;5050088;28;20037;-69
2023/09/02 10:13:57;;;;;;;2.47;2.27;;;18.70;99.90;;;;;;5040147;28;20022;-69
2023/09/02 10:16:24;;;;;;;8.30;2.45;;;18.80;99.90;;;;;;5051392;28;20044;-69
2023/09/02 10:18:51;;;;;;;7.72;2.72;;;18.80;99.90;;;;;;5049743;28;20301;-69
2023/09/02 10:21:21;;;;;;;5.22;2.10;;;18.80;99.90;;;;;;5045326;28;20098;-75
2023/09/02 10:23:49;;;;;;;6.32;3.22;;;18.80;99.90;;;;;;5042728;28;20028;-75
2023/09/02 10:26:23;;;;;;;4.07;2.95;;;18.80;99.90;;;;;;5034650;28;20052;-69
2023/09/02 10:28:50;;;;;;;2.10;1.48;;;18.90;99.90;;;;;;5038051;28;20041;-70
2023/09/02 10:31:22;;;;;;;;;;;18.90;99.90;;;;;;5038430;28;20313;-74
2023/09/02 10:34:02;;;;;;;1.50;1.40;;;18.90;99.90;;;;;;5046644;28;20308;-69
2023/09/02 10:36:31;;;;;;;3.00;2.65;;;18.90;99.90;;;;;;5043892;28;20443;-73
2023/09/02 10:39:03;;;;;;;3.95;2.70;;;19.00;99.90;;;;;;5038170;28;20041;-69
2023/09/02 10:41:30;;;;;;;3.47;1.77;;;19.00;99.90;;;;;;5034050;28;20030;-69
2023/09/02 10:43:57;;;;;;;5.97;2.70;;;19.10;99.90;;;;;;5036374;28;20368;-74
2023/09/02 10:46:24;;;;;;;1.67;1.58;;;19.10;99.90;;;;;;5035825;28;20017;-68
2023/09/02 10:48:50;;;;;;;2.50;2.22;;;19.20;99.90;;;;;;5036408;28;20057;-69
2023/09/02 10:51:16;;;;;;;3.58;2.08;;;19.20;99.90;;;;;;5040635;28;20025;-69
2023/09/02 10:53:48;;;;;;;4.82;2.50;;;19.30;99.90;;;;;;5041366;28;20415;-69
2023/09/02 10:56:27;;;;;;;4.15;2.20;;;19.50;99.90;;;;;;5032172;28;20104;-69
2023/09/02 10:58:53;;;;;;;4.05;3.05;;;19.60;99.90;;;;;;5032603;28;20029;-75
2023/09/02 11:01:22;;;;;;;6.80;3.17;;;19.60;99.90;;;;;;5052390;28;20033;-69
2023/09/02 11:03:49;;;;;;;13.82;3.60;;;19.50;99.90;;;;;;5050793;28;20362;-69
2023/09/02 11:06:16;;;;;;;5.68;2.40;;;19.50;99.90;;;;;;5042310;28;20032;-69
2023/09/02 11:08:46;;;;;;;2.92;2.63;;;19.50;99.90;;;;;;5040062;28;20025;-69
2023/09/02 11:11:12;;;;;;;3.25;2.92;;;19.50;99.90;;;;;;5051327;28;20026;-69
2023/09/02 11:14:06;;;;;;;3.67;1.40;;;19.50;99.90;;;;;;5046681;28;20030;-69
2023/09/02 11:16:33;;;;;;;3.90;2.85;;;19.40;99.90;;;;;;5036582;28;20420;-69
2023/09/02 11:19:00;;;;;;;7.63;2.35;;;19.40;99.90;;;;;;5040424;28;20037;-70
2023/09/02 11:21:46;;;;;;;6.68;2.33;;;19.50;99.90;;;;;;5045208;28;20033;-70
2023/09/02 11:24:22;;;;;;;2.03;1.92;;;19.50;99.90;;;;;;5048685;28;20017;-69
2023/09/02 11:26:52;;;;;;;2.35;1.83;;;19.40;99.90;;;;;;5044441;28;20073;-69
2023/09/02 11:29:36;;;;;;;2.67;2.05;;;19.40;99.90;;;;;;5042220;28;20030;-69
2023/09/02 11:32:04;;;;;;;2.45;1.55;;;19.40;99.90;;;;;;5045555;28;20021;-77
2023/09/02 11:34:30;;;;;;;5.35;2.13;;;19.50;99.90;;;;;;5050519;28;20021;-69
2023/09/02 11:37:00;;;;;;;4.72;2.78;;;19.40;99.90;;;;;;5041505;28;20030;-75
2023/09/02 11:39:27;;;;;;;6.65;1.92;;;19.40;99.90;;;;;;5043009;28;20104;-78
2023/09/02 11:42:06;;;;;;;;;;;19.40;99.90;;;;;;5037766;28;20075;-69
2023/09/02 11:44:32;;;;;;;2.72;2.38;;;19.50;99.90;;;;;;5047226;28;19913;-69
2023/09/02 11:46:58;;;;;;;4.30;2.03;;;19.50;99.90;;;;;;5042564;28;20026;-71
2023/09/02 11:49:23;;;;;;;3.70;2.05;;;19.50;99.90;;;;;;5045538;28;20048;-69
2023/09/02 11:51:49;;;;;;;3.00;2.70;;;19.40;99.90;;;;;;5037556;28;20328;-68
2023/09/02 11:54:16;;;;;;;5.17;2.87;;;19.50;99.90;;;;;;5050320;28;20033;-69
2023/09/02 11:56:42;;;;;;;2.38;2.28;;;19.50;99.90;;;;;;5042205;28;20025;-69
2023/09/02 11:59:22;;;;;;;7.10;2.47;;;19.50;99.90;;;;;;5043949;28;20044;-71
2023/09/02 12:02:09;;;;;;;3.03;1.58;;;19.60;99.90;;;;;;5036998;28;20032;-76
2023/09/02 12:04:39;;;;;;;5.13;2.63;;;19.80;99.90;;;;;;5035942;28;20032;-76
2023/09/02 12:07:06;;;;;;;2.15;1.60;;;19.80;99.90;;;;;;5036027;28;20039;-69
2023/09/02 12:09:34;;;;;;;5.57;2.13;;;19.60;99.90;;;;;;5036982;28;20025;-70
2023/09/02 12:12:01;;;;;;;5.43;2.53;;;19.70;99.90;;;;;;5022993;28;20084;-68
2023/09/02 12:14:29;;;;;;;6.40;2.05;;;19.80;99.90;;;;;;5036942;28;20025;-69
2023/09/02 12:16:56;;;;;;;2.75;2.22;;;19.70;99.90;;;;;;5036593;28;20432;-69
2023/09/02 12:19:22;;;;;;;0.98;0.85;;;19.80;99.90;;;;;;5048297;28;20032;-68
2023/09/02 12:21:48;;;;;;;1.95;1.75;;;19.60;99.90;;;;;;5036844;28;20374;-69
2023/09/02 12:24:14;;;;;;;28.58;2.15;;;19.70;99.90;;;;;;5023182;28;20029;-78
2023/09/02 12:26:51;;;;;;;4.47;1.80;;;19.80;99.90;;;;;;5035545;28;20049;-69
2023/09/02 12:29:17;;;;;;;;;;;20.00;99.90;;;;;;5035952;28;20033;-76
2023/09/02 12:31:56;;;;;;;4.50;2.03;;;19.90;99.90;;;;;;5055494;28;20344;-76
2023/09/02 12:34:23;;;;;;;4.93;2.63;;;19.90;99.90;;;;;;5055706;28;20029;-69
2023/09/02 12:36:48;;;;;;;1.70;1.00;;;19.80;99.90;;;;;;5056564;28;20025;-68
2023/09/02 12:39:25;;;;;;;3.97;1.43;;;19.80;99.90;;;;;;5056679;28;20039;-68
2023/09/02 12:41:51;;;;;;;1.10;1.00;;;19.90;99.90;;;;;;5023089;28;20045;-68
2023/09/02 12:44:20;;;;;;;11.10;2.08;;;19.90;99.90;;;;;;5048845;28;20025;-69
2023/09/02 12:46:47;;;;;;;8.85;1.95;;;19.90;99.90;;;;;;5042037;28;20021;-75
2023/09/02 12:49:17;;;;;;;2.33;1.52;;;20.00;99.90;;;;;;5056034;28;20017;-69